Newark, New Jersey
Current Conditions -  °F | °C
As of 7:51 AM on Monday 22 Dec 2014 (Local Time) from KEWR Reporting Station
Overcast Overcast  
Wind Chill:   Ceiling: 800
Heat Index:   Visibility: 10mi
Dew Point:   Wind: 6mph
Humidity: 86%   Direction: 30°NNE
Pressure: 30.33"   Gusts: NA
Location:  40.73°N, 74.17°W
Report Text: KEWR 221251Z 03005KT 10SM BKN008 OVC012 02/00 A3033 RMK AO2 SLP268 T00220000
Loading
Personal Weather Stations






























Interactive Weather Map New forecast layout! Learn more

10-Day Weather Forecast

Advertisements
Track Severe Weather on mobile